Terminal Aerodrome Forecast
Issued by NWS

Home | Current Version | Previous Version | Text Only | Print | Product List | Glossary On
Versions: 1 2 3 4 5 6 7 8 9 10 11 12 13 14 15 16 17
000
FTUS44 KBMX 221100
TAFTOI
TAF
KTOI 221130Z 2212/2312 VRB03KT P6SM SCT040 BKN070
     FM221400 02006KT P6SM VCSH BKN050
     FM221600 36008KT P6SM VCTS SCT030 BKN050CB
     FM222000 34010G18KT P6SM SCT250
     FM230000 35008KT P6SM SCT250
     FM230400 VRB03KT P6SM SKC=

USA.gov is the U.S. government's official web portal to all federal, state and local government web resources and services.